createdAt,value
2019-03-05T00:01:57.712Z,3.90
2019-03-05T00:06:05.893Z,4.60
2019-03-05T00:10:14.532Z,4.45
2019-03-05T00:14:24.319Z,4.30
2019-03-05T00:18:32.608Z,3.83
2019-03-05T00:22:40.850Z,4.47
2019-03-05T00:26:49.127Z,4.10
2019-03-05T00:31:01.212Z,3.80
2019-03-05T00:36:26.817Z,5.23
2019-03-05T00:40:47.262Z,3.80
2019-03-05T00:46:09.415Z,3.60
2019-03-05T00:50:29.313Z,3.77
2019-03-05T00:54:48.914Z,4.20
2019-03-05T01:00:08.232Z,3.70
2019-03-05T01:04:31.827Z,3.77
2019-03-05T01:08:40.080Z,3.80
2019-03-05T01:12:48.301Z,3.87
2019-03-05T01:16:56.541Z,3.98
2019-03-05T01:21:04.785Z,3.50
2019-03-05T01:25:23.536Z,3.10
2019-03-05T01:29:31.720Z,3.37
2019-03-05T01:33:44.166Z,2.87
2019-03-05T01:37:52.360Z,2.90
2019-03-05T01:42:00.545Z,3.53
2019-03-05T01:46:08.770Z,2.60
2019-03-05T01:50:16.996Z,3.23
2019-03-05T01:54:25.201Z,2.90
2019-03-05T01:58:33.412Z,2.40
2019-03-05T02:02:41.621Z,3.43
2019-03-05T02:06:49.810Z,3.20
2019-03-05T02:10:58.011Z,2.50
2019-03-05T02:15:06.281Z,2.70
2019-03-05T02:19:25.754Z,2.47
2019-03-05T02:24:18.931Z,2.50
2019-03-05T02:29:41.817Z,3.20
2019-03-05T02:33:55.756Z,2.73
2019-03-05T02:38:14.008Z,2.90
2019-03-05T02:42:39.746Z,2.63
2019-03-05T02:48:18.308Z,2.13
2019-03-05T02:52:33.163Z,2.43
2019-03-05T02:56:52.093Z,4.07
2019-03-05T03:01:08.403Z,2.60
2019-03-05T03:05:21.600Z,3.40
2019-03-05T03:10:34.915Z,3.00
2019-03-05T03:14:43.449Z,2.23
2019-03-05T03:18:51.620Z,2.97
2019-03-05T03:22:59.853Z,2.80
2019-03-05T03:27:08.070Z,2.90
2019-03-05T03:31:16.368Z,2.57
2019-03-05T03:35:24.629Z,3.00
2019-03-05T03:39:32.854Z,2.87
2019-03-05T03:43:41.113Z,3.13
2019-03-05T03:47:49.350Z,3.00
2019-03-05T03:51:57.676Z,3.07
2019-03-05T03:56:05.913Z,2.63
2019-03-05T04:00:17.683Z,2.60
2019-03-05T04:04:25.962Z,3.00
2019-03-05T04:08:34.262Z,2.90
2019-03-05T04:12:42.559Z,2.80
2019-03-05T04:16:50.857Z,3.17
2019-03-05T04:20:59.170Z,3.47
2019-03-05T04:25:07.450Z,3.00
2019-03-05T04:29:15.709Z,3.00
2019-03-05T04:33:23.983Z,3.27
2019-03-05T04:37:32.278Z,2.70
2019-03-05T04:41:40.541Z,3.70
2019-03-05T04:45:59.054Z,3.17
2019-03-05T04:50:14.941Z,3.50
2019-03-05T04:54:23.213Z,3.70
2019-03-05T04:58:31.470Z,3.30
2019-03-05T05:02:39.777Z,3.20
2019-03-05T05:06:48.029Z,3.23
2019-03-05T05:10:56.329Z,3.20
2019-03-05T05:15:05.709Z,3.37
2019-03-05T05:19:13.938Z,3.50
2019-03-05T05:23:22.180Z,3.63
2019-03-05T05:27:30.421Z,3.63
2019-03-05T05:31:38.673Z,3.17
2019-03-05T05:35:47.100Z,3.50
2019-03-05T05:40:06.601Z,3.80
2019-03-05T05:44:14.869Z,3.17
2019-03-05T05:48:23.211Z,3.50
2019-03-05T05:52:31.458Z,3.53
2019-03-05T05:56:39.733Z,3.17
2019-03-05T06:00:49.909Z,3.60
2019-03-05T06:04:58.177Z,3.10
2019-03-05T06:09:07.019Z,3.53
2019-03-05T06:13:15.285Z,4.03
2019-03-05T06:17:23.525Z,3.70
2019-03-05T06:21:31.769Z,3.30
2019-03-05T06:25:40.037Z,2.90
2019-03-05T06:29:48.379Z,3.83
2019-03-05T06:33:56.690Z,3.00
2019-03-05T06:38:05.055Z,3.47
2019-03-05T06:42:13.311Z,3.60
2019-03-05T06:46:21.578Z,3.03
2019-03-05T06:50:29.825Z,2.50
2019-03-05T06:54:38.131Z,2.67
2019-03-05T06:58:46.406Z,2.70
2019-03-05T07:02:55.916Z,2.43
2019-03-05T07:07:04.193Z,2.20
2019-03-05T07:11:22.626Z,2.33
2019-03-05T07:16:45.596Z,2.60
2019-03-05T07:22:04.311Z,2.47
2019-03-05T07:26:12.682Z,3.90
2019-03-05T07:30:22.502Z,2.13
2019-03-05T07:34:31.654Z,2.53
2019-03-05T07:38:39.893Z,2.70
2019-03-05T07:42:48.207Z,2.30
2019-03-05T07:46:56.428Z,3.50
2019-03-05T07:51:04.711Z,2.90
2019-03-05T07:55:15.994Z,3.30
2019-03-05T07:59:24.273Z,3.43
2019-03-05T08:03:32.490Z,3.33
2019-03-05T08:07:40.889Z,3.90
2019-03-05T08:11:49.126Z,3.73
2019-03-05T08:16:12.086Z,3.83
2019-03-05T08:20:20.324Z,3.30
2019-03-05T08:24:28.641Z,3.60
2019-03-05T08:28:37.029Z,3.33
2019-03-05T08:32:45.570Z,4.73
2019-03-05T08:36:53.847Z,3.57
2019-03-05T08:41:02.212Z,3.57
2019-03-05T08:45:12.222Z,3.70
2019-03-05T08:49:20.437Z,3.90
2019-03-05T08:53:28.724Z,3.23
2019-03-05T08:57:37.034Z,3.20
2019-03-05T09:01:45.288Z,3.17
2019-03-05T09:05:53.562Z,3.27
2019-03-05T09:10:01.853Z,4.00
2019-03-05T09:14:10.229Z,3.60
2019-03-05T09:18:18.589Z,4.13
2019-03-05T09:22:26.917Z,5.22
2019-03-05T09:26:35.233Z,4.20
2019-03-05T09:30:43.554Z,6.30
2019-03-05T09:34:51.813Z,3.57
2019-03-05T09:39:00.059Z,4.22
2019-03-05T09:43:08.539Z,4.20
2019-03-05T09:47:17.044Z,5.03
2019-03-05T09:51:25.894Z,4.50
2019-03-05T09:55:34.431Z,4.73
2019-03-05T09:59:42.718Z,5.17
2019-03-05T10:03:50.966Z,4.08
2019-03-05T10:07:59.259Z,5.35
2019-03-05T10:12:07.546Z,5.00
2019-03-05T10:16:16.041Z,5.03
2019-03-05T10:20:24.622Z,4.90
2019-03-05T10:24:32.908Z,5.10
2019-03-05T10:28:41.307Z,4.57
2019-03-05T10:32:50.110Z,4.43
2019-03-05T10:36:58.563Z,4.70
2019-03-05T10:41:07.440Z,5.30
2019-03-05T10:45:16.948Z,4.30
2019-03-05T10:49:25.389Z,5.63
2019-03-05T10:53:33.899Z,4.50
2019-03-05T10:57:44.328Z,4.83
2019-03-05T11:01:51.228Z,5.20
2019-03-05T11:05:59.642Z,5.43
2019-03-05T11:10:09.968Z,4.80
2019-03-05T11:14:18.303Z,5.20
2019-03-05T11:18:29.869Z,4.77
2019-03-05T11:22:35.227Z,4.33
2019-03-05T11:26:43.678Z,5.43
2019-03-05T11:30:52.058Z,4.70
2019-03-05T11:35:00.483Z,4.00
2019-03-05T11:39:08.807Z,3.97
2019-03-05T11:43:17.221Z,5.23
2019-03-05T11:47:25.479Z,4.20
2019-03-05T11:51:33.812Z,3.80
2019-03-05T11:55:42.108Z,3.60
2019-03-05T11:59:50.387Z,4.30
2019-03-05T12:03:58.679Z,3.77
2019-03-05T12:08:06.967Z,4.08
2019-03-05T12:12:15.299Z,4.40
2019-03-05T12:16:23.585Z,4.80
2019-03-05T12:20:31.857Z,4.30
2019-03-05T12:24:40.161Z,3.67
2019-03-05T12:28:48.448Z,3.67
2019-03-05T12:32:56.773Z,3.70
2019-03-05T12:37:05.120Z,4.00
2019-03-05T12:41:13.425Z,3.23
2019-03-05T12:45:21.789Z,3.63
2019-03-05T12:49:30.070Z,3.53
2019-03-05T12:53:38.375Z,4.00
2019-03-05T12:57:46.709Z,5.40
2019-03-05T13:01:54.995Z,2.77
2019-03-05T13:06:03.001Z,2.83
2019-03-05T13:10:13.217Z,3.77
2019-03-05T13:14:21.528Z,2.70
2019-03-05T13:18:31.099Z,3.07
2019-03-05T13:22:38.115Z,3.10
2019-03-05T13:26:46.462Z,2.90
2019-03-05T13:30:54.717Z,3.40
2019-03-05T13:35:03.001Z,3.60
2019-03-05T13:39:11.281Z,3.30
2019-03-05T13:43:21.700Z,3.40
2019-03-05T13:47:27.857Z,3.43
2019-03-05T13:51:56.101Z,3.27
2019-03-05T13:58:51.469Z,3.40
2019-03-05T14:03:02.201Z,3.40
2019-03-05T14:07:41.479Z,3.80
2019-03-05T14:11:50.804Z,3.70
2019-03-05T14:15:59.122Z,2.90
2019-03-05T14:20:11.122Z,3.53
2019-03-05T14:24:19.412Z,3.37
2019-03-05T14:28:27.807Z,3.80
2019-03-05T14:32:36.217Z,3.27
2019-03-05T14:36:44.468Z,3.70
2019-03-05T14:40:52.764Z,3.13
2019-03-05T14:45:01.070Z,3.47
2019-03-05T14:49:09.388Z,3.57
2019-03-05T14:53:17.658Z,3.10
2019-03-05T14:57:25.969Z,3.40
2019-03-05T15:01:34.271Z,4.00
2019-03-05T15:05:42.571Z,2.73
2019-03-05T15:09:50.841Z,3.50
2019-03-05T15:13:59.149Z,4.40
2019-03-05T15:18:07.542Z,3.50
2019-03-05T15:22:15.862Z,3.27
2019-03-05T15:26:24.202Z,3.80
2019-03-05T15:30:32.470Z,3.97
2019-03-05T15:34:40.764Z,3.93
2019-03-05T15:38:49.075Z,4.30
2019-03-05T15:42:57.428Z,4.20
2019-03-05T15:47:05.703Z,3.47
2019-03-05T15:51:14.039Z,3.60
2019-03-05T15:55:22.378Z,3.87
2019-03-05T15:59:30.715Z,4.50
2019-03-05T16:03:38.927Z,4.00
2019-03-05T16:07:47.999Z,3.30
2019-03-05T16:11:55.472Z,3.07
2019-03-05T16:16:03.848Z,2.90
2019-03-05T16:20:12.834Z,3.40
2019-03-05T16:24:21.109Z,3.33
2019-03-05T16:28:30.146Z,3.72
2019-03-05T16:32:44.512Z,3.50
2019-03-05T16:36:58.227Z,4.03
2019-03-05T16:41:11.707Z,3.80
2019-03-05T16:45:43.217Z,3.27
2019-03-05T16:50:08.708Z,3.70
2019-03-05T16:54:22.230Z,7.40
2019-03-05T16:58:41.857Z,10.13
2019-03-05T17:02:55.738Z,4.57
2019-03-05T17:07:17.163Z,3.40
2019-03-05T17:11:32.774Z,3.40
2019-03-05T17:15:41.121Z,3.00
2019-03-05T17:19:49.465Z,2.47
2019-03-05T17:23:57.796Z,3.60
2019-03-05T17:28:06.110Z,2.80
2019-03-05T17:32:14.396Z,3.00
2019-03-05T17:36:23.189Z,3.20
2019-03-05T17:40:31.506Z,3.10
2019-03-05T17:44:39.886Z,3.13
2019-03-05T17:48:48.243Z,3.77
2019-03-05T17:52:56.663Z,3.57
2019-03-05T17:57:04.997Z,3.10
2019-03-05T18:01:13.291Z,3.80
2019-03-05T18:05:21.585Z,3.60
2019-03-05T18:09:29.869Z,3.63
2019-03-05T18:13:38.154Z,3.77
2019-03-05T18:17:46.416Z,4.20
2019-03-05T18:21:54.721Z,3.53
2019-03-05T18:26:03.072Z,3.70
2019-03-05T18:30:13.992Z,3.40
2019-03-05T18:34:22.249Z,3.50
2019-03-05T18:38:30.565Z,3.03
2019-03-05T18:42:38.821Z,2.53
2019-03-05T18:46:47.073Z,3.17
2019-03-05T18:50:55.410Z,3.30
2019-03-05T18:55:04.098Z,3.17
2019-03-05T18:59:12.382Z,3.60
2019-03-05T19:03:20.677Z,3.30
2019-03-05T19:07:28.938Z,2.70
2019-03-05T19:11:37.733Z,2.90
2019-03-05T19:15:45.979Z,2.87
2019-03-05T19:19:54.335Z,3.20
2019-03-05T19:24:02.594Z,3.90
2019-03-05T19:28:11.535Z,2.90
2019-03-05T19:32:19.189Z,3.00
2019-03-05T19:36:27.509Z,3.40
2019-03-05T19:40:35.889Z,3.23
2019-03-05T19:44:44.171Z,2.93
2019-03-05T19:48:52.483Z,3.67
2019-03-05T19:53:00.773Z,3.33
2019-03-05T19:57:09.072Z,3.83
2019-03-05T20:01:19.748Z,3.47
2019-03-05T20:05:28.040Z,3.13
2019-03-05T20:09:36.089Z,3.47
2019-03-05T20:13:44.441Z,3.53
2019-03-05T20:17:58.860Z,3.20
2019-03-05T20:22:01.086Z,3.87
2019-03-05T20:26:09.377Z,3.80
2019-03-05T20:30:18.346Z,3.20
2019-03-05T20:34:26.656Z,3.70
2019-03-05T20:38:34.948Z,4.20
2019-03-05T20:42:43.254Z,3.60
2019-03-05T20:46:51.925Z,3.57
2019-03-05T20:51:00.337Z,3.53
2019-03-05T20:55:10.802Z,3.63
2019-03-05T20:59:19.068Z,3.90
2019-03-05T21:03:27.373Z,4.10
2019-03-05T21:07:35.631Z,4.37
2019-03-05T21:11:43.951Z,3.33
2019-03-05T21:15:52.223Z,4.67
2019-03-05T21:20:00.507Z,4.53
2019-03-05T21:24:08.816Z,4.20
2019-03-05T21:28:17.893Z,4.40
2019-03-05T21:32:26.165Z,4.30
2019-03-05T21:36:34.392Z,4.63
2019-03-05T21:40:42.722Z,5.10
2019-03-05T21:44:51.017Z,4.17
2019-03-05T21:48:59.291Z,3.70
2019-03-05T21:53:07.674Z,5.00
2019-03-05T21:57:15.934Z,4.40
2019-03-05T22:01:24.195Z,5.60
2019-03-05T22:05:32.504Z,4.50
2019-03-05T22:09:40.789Z,4.07
2019-03-05T22:13:49.101Z,4.37
2019-03-05T22:17:57.441Z,4.50
2019-03-05T22:22:06.321Z,4.10
2019-03-05T22:26:14.616Z,3.93
2019-03-05T22:30:24.716Z,3.67
2019-03-05T22:34:33.010Z,4.67
2019-03-05T22:38:41.317Z,4.90
2019-03-05T22:42:49.695Z,5.67
2019-03-05T22:46:57.961Z,5.30
2019-03-05T22:51:06.221Z,5.13
2019-03-05T22:55:14.545Z,4.50
2019-03-05T22:59:22.785Z,4.53
2019-03-05T23:03:31.126Z,4.13
2019-03-05T23:07:39.396Z,4.27
2019-03-05T23:11:47.718Z,4.80
2019-03-05T23:15:55.949Z,3.97
2019-03-05T23:20:04.645Z,4.70
2019-03-05T23:24:12.944Z,3.70
2019-03-05T23:28:21.216Z,5.10
2019-03-05T23:32:29.508Z,4.47
2019-03-05T23:36:37.825Z,4.67
2019-03-05T23:40:46.213Z,4.07
2019-03-05T23:44:54.512Z,5.77
2019-03-05T23:49:02.816Z,4.57
2019-03-05T23:53:11.095Z,4.30
2019-03-05T23:57:19.381Z,4.63
